• Join FlightAware (Why Join?)
  • Login
  • US Flag 
05:10AM EDT


 

Airport Tracker/Info


-or-


 

Live Flight TrackerFlight Track Log ✈ AFL1461 ✈ 13-Aug-2014 ✈ UNNT / OVB - UUEE / SVO

Flight Track Log - Related Links

Times and Time Zones

All times are in EDT time to prevent confusion due to time zone crossing. See the AFL1461 flight status page for this flight to view local times or setup timezone preferences in your user account.

Time Position Orientation Groundspeed Altitude Reporting Facility
EDT Latitude Longitude Course Direction KTS MPH feet Rate Location/Type
09:22AM 56.8956 68.6918 281° West 457 526 36,000  Level FlightAware ADS-B (USTR / TJM)
09:22AM 56.8980 68.6676 280° West 457 526 36,000  Level FlightAware ADS-B (USTR / TJM)
09:22AM 56.9070 68.5775 281° West 456 525 36,000  Level FlightAware ADS-B (USTR / TJM)
09:23AM 56.9125 68.5222 280° West 456 525 36,000  Level FlightAware ADS-B (USTR / TJM)
09:23AM 56.9188 68.4586 281° West 456 525 36,000  Level FlightAware ADS-B (USTR / TJM)
09:23AM 56.9272 68.3707 280° West 457 526 36,000  Level FlightAware ADS-B (USTR / TJM)
09:23AM 56.9297 68.3442 280° West 456 525 36,000  Level FlightAware ADS-B (USTR / TJM)
09:24AM 56.9402 68.2311 280° West 455 524 36,000  Level FlightAware ADS-B (USTR / TJM)
09:24AM 56.9415 68.2168 280° West 456 525 36,000  Level FlightAware ADS-B (USTR / TJM)
09:24AM 56.9508 68.1182 280° West 455 524 36,000  Level FlightAware ADS-B (USTR / TJM)
09:25AM 56.9567 68.0560 280° West 456 525 36,000  Level FlightAware ADS-B (USTR / TJM)
09:25AM 56.9616 68.0044 280° West 456 525 36,000  Level FlightAware ADS-B (USTR / TJM)
09:25AM 56.9706 67.9094 280° West 457 526 36,000  Level FlightAware ADS-B (USTR / TJM)
09:25AM 56.9723 67.8911 280° West 456 525 36,000  Level FlightAware ADS-B (USTR / TJM)
09:26AM 56.9837 67.7707 280° West 458 527 36,000  Level FlightAware ADS-B (USTR / TJM)
09:26AM 56.9854 67.7516 280° West 458 527 36,000  Level FlightAware ADS-B (USTR / TJM)
09:26AM 56.9936 67.6614 280° West 459 528 36,000  Level FlightAware ADS-B (USTR / TJM)
09:27AM 56.9995 67.5954 279° West 460 529 36,000  Level FlightAware ADS-B (USTR / TJM)
09:27AM 57.0040 67.5456 280° West 461 531 36,000  Level FlightAware ADS-B (USTR / TJM)
09:27AM 57.0130 67.4440 279° West 461 531 36,000  Level FlightAware ADS-B (USTR / TJM)
09:27AM 57.0143 67.4286 280° West 461 531 36,000  Level FlightAware ADS-B (USTR / TJM)
09:28AM 57.0245 67.3114 280° West 461 531 36,000  Level FlightAware ADS-B (USTR / TJM)
09:28AM 57.0268 67.2852 279° West 462 532 36,000  Level FlightAware ADS-B (USTR / TJM)
09:28AM 57.0344 67.1996 280° West 462 532 36,000  Level FlightAware ADS-B (USTR / TJM)
09:29AM 57.0407 67.1261 279° West 463 533 36,000  Level FlightAware ADS-B (USTR / TJM)
09:29AM 57.0441 67.0875 279° West 462 532 36,000  Level FlightAware ADS-B (USTR / TJM)
09:29AM 57.0537 66.9745 279° West 463 533 36,000  Level FlightAware ADS-B (USTR / TJM)
09:29AM 57.0547 66.9637 279° West 462 532 36,000  Level FlightAware ADS-B (USTR / TJM)
09:30AM 57.0634 66.8569 278° West 462 532 36,000  Level FlightAware ADS-B (USTR / TJM)
09:30AM 57.0650 66.8352 278° West 462 532 36,000  Level FlightAware ADS-B (USTR / TJM)
09:30AM 57.0722 66.7351 278° West 461 531 36,000  Level FlightAware ADS-B (USTR / TJM)
09:31AM 57.0747 66.7001 277° West 462 532 36,000  Level FlightAware ADS-B (USTR / TJM)
09:33AM 57.1075 66.2375 278° West 460 529 36,000  Level FlightAware ADS-B (USTR / TJM)
09:33AM 57.1103 66.1980 277° West 461 531 36,000  Level FlightAware ADS-B (USTR / TJM)
09:33AM 57.1160 66.1159 278° West 460 529 36,000  Level FlightAware ADS-B (USTR / TJM)
09:34AM 57.1304 65.9043 278° West 460 529 36,000  Level FlightAware ADS-B (USTR / TJM)
09:34AM 57.1323 65.8772 277° West 461 531 36,000  Level FlightAware ADS-B (USTR / TJM)
09:36AM 57.1573 65.4956 277° West 462 532 36,000  Level FlightAware ADS-B (USTR / TJM)
09:36AM 57.1579 65.4878 277° West 462 532 36,000  Level FlightAware ADS-B (USTR / TJM)
09:37AM 57.1679 65.3013 277° West 462 532 36,000  Level FlightAware ADS-B (USTR / TJM)
09:38AM 57.1591 64.9392 268° West 462 532 36,000  Level FlightAware ADS-B (USTR / TJM)
09:38AM 57.1588 64.9282 267° West 463 533 36,000  Level FlightAware ADS-B (USTR / TJM)
09:38AM 57.1567 64.8482 268° West 462 532 36,000  Level FlightAware ADS-B (USTR / TJM)
09:39AM 57.1533 64.7259 268° West 462 532 36,000  Level FlightAware ADS-B (USTR / TJM)
09:39AM 57.1497 64.6019 268° West 462 532 36,000  Level FlightAware ADS-B (USTR / TJM)
09:48AM 57.1336 62.5561 268° West 462 532 36,000  Level FlightAware ADS-B (USTR / TJM)
09:51AM 57.1076 61.8245 254° West 465 535 36,000  Level FlightAware ADS-B (USTR / TJM)
09:52AM 57.0858 61.6869 254° West 464 534 36,000  Level FlightAware ADS-B (USTR / TJM)
09:52AM 57.0753 61.6205 254° West 464 534 36,000  Level FlightAware ADS-B (USTR / TJM)
09:53AM 57.0612 61.5331 254° West 463 533 36,000 -240 Level FlightAware ADS-B (USTR / TJM)
11:41AM 55.9763 38.7183 North -240 Descending FlightAware ADS-B (UUWV / MOW)
11:45AM 55.9572 38.0508 275° West 244 281 11,800 1,980 Climbing FlightAware ADS-B (UUWV / MOW)
11:46AM 55.9726 37.4146 269° West  Level Estimated
11:46AM 55.9606 37.9860 276° West 256 295 10,700  Level FlightAware ADS-B (UUWV / MOW)
11:46AM 55.9656 37.8958 276° West 262 302 9,800 -1,680 Descending FlightAware ADS-B (UUWV / MOW)
11:47AM 55.9689 37.8356 276° West 262 302 9,000 -1,620 Descending FlightAware ADS-B (UUWV / MOW)
11:47AM 55.9708 37.8003 275° West 263 303 8,600 -1,380 Descending FlightAware ADS-B (UUWV / MOW)
11:48AM 55.9759 37.7018 275° West 260 299 7,600 -1,200 Descending FlightAware ADS-B (UUWV / MOW)
11:48AM 55.9775 37.6695 275° West 252 290 7,400 -720 Descending FlightAware ADS-B (UUWV / MOW)
11:49AM 55.9796 37.6281 275° West 232 267 7,200 -900 Descending FlightAware ADS-B (UUWV / MOW)
11:50AM 56.0511 37.6075 44° Northeast 246 283 5,500 -900 Descending FlightAware ADS-B (UUWV / MOW)
11:51AM 56.0817 37.6750 76° East 245 282 5,100 -1,080 Descending FlightAware ADS-B (UUWV / MOW)
11:51AM 56.0812 37.7024 104° East 236 272 4,700 -1,380 Descending FlightAware ADS-B (UUWV / MOW)
11:51AM 56.0717 37.7287 136° Southeast 224 258 4,400 -1,200 Descending FlightAware ADS-B (UUWV / MOW)
11:52AM 56.0598 37.7385 163° South 211 243 4,100 -1,260 Descending FlightAware ADS-B (UUWV / MOW)
11:52AM 56.0468 37.7359 204° Southwest 193 222 3,800 -1,200 Descending FlightAware ADS-B (UUWV / MOW)
11:52AM 56.0343 37.7227 213° Southwest 187 215 3,500 -960 Descending FlightAware ADS-B (UUWV / MOW)
11:53AM 56.0153 37.6960 236° Southwest 170 196 3,100 -840 Descending FlightAware ADS-B (UUWV / MOW)
11:53AM 56.0135 37.6841 258° West 164 189 2,900 -960 Descending FlightAware ADS-B (UUWV / MOW)
11:55AM 55.9726 37.4146 255° West  Level Estimated
11:56AM 55.9726 37.4146 North  Level Estimated